createdAt,value
2018-02-02T00:00:31.832Z,993.71
2018-02-02T00:01:12.308Z,993.64
2018-02-02T00:01:52.879Z,993.65
2018-02-02T00:02:33.333Z,993.66
2018-02-02T00:03:13.890Z,993.62
2018-02-02T00:03:54.458Z,993.68
2018-02-02T00:04:35.010Z,993.64
2018-02-02T00:05:15.550Z,993.68
2018-02-02T00:05:56.085Z,993.62
2018-02-02T00:06:36.615Z,993.63
2018-02-02T00:07:17.111Z,993.65
2018-02-02T00:07:57.653Z,993.63
2018-02-02T00:08:38.220Z,993.66
2018-02-02T00:09:18.732Z,993.64
2018-02-02T00:09:59.285Z,993.6
2018-02-02T00:10:39.984Z,993.57
2018-02-02T00:11:20.528Z,993.61
2018-02-02T00:12:01.081Z,993.64
2018-02-02T00:12:41.625Z,993.59
2018-02-02T00:13:22.223Z,993.58
2018-02-02T00:14:02.723Z,993.58
2018-02-02T00:14:43.290Z,993.59
2018-02-02T00:15:23.798Z,993.56
2018-02-02T00:16:04.370Z,993.58
2018-02-02T00:16:44.942Z,993.54
2018-02-02T00:17:25.560Z,993.56
2018-02-02T00:18:06.035Z,993.53
2018-02-02T00:18:46.566Z,993.58
2018-02-02T00:19:27.063Z,993.56
2018-02-02T00:20:07.611Z,993.53
2018-02-02T00:20:48.170Z,993.59
2018-02-02T00:21:28.749Z,993.55
2018-02-02T00:22:09.322Z,993.53
2018-02-02T00:22:49.805Z,993.56
2018-02-02T00:23:30.304Z,993.54
2018-02-02T00:24:10.848Z,993.54
2018-02-02T00:24:51.413Z,993.58
2018-02-02T00:25:32.200Z,993.57
2018-02-02T00:26:12.524Z,993.57
2018-02-02T00:26:53.061Z,993.56
2018-02-02T00:27:33.614Z,993.56
2018-02-02T00:28:14.208Z,993.54
2018-02-02T00:28:54.720Z,993.52
2018-02-02T00:29:35.370Z,993.58
2018-02-02T00:30:15.975Z,993.55
2018-02-02T00:30:56.475Z,993.55
2018-02-02T00:31:37.069Z,993.53
2018-02-02T00:32:17.580Z,993.51
2018-02-02T00:32:58.332Z,993.56
2018-02-02T00:33:38.925Z,993.56
2018-02-02T00:34:19.756Z,993.54
2018-02-02T00:35:00.663Z,993.58
2018-02-02T00:35:41.945Z,993.57
2018-02-02T00:36:22.527Z,993.55
2018-02-02T00:37:03.098Z,993.57
2018-02-02T00:37:43.680Z,993.56
2018-02-02T00:38:24.265Z,993.6
2018-02-02T00:39:05.069Z,993.56
2018-02-02T00:39:45.434Z,993.52
2018-02-02T00:40:25.956Z,993.55
2018-02-02T00:41:06.574Z,993.57
2018-02-02T00:41:47.086Z,993.53
2018-02-02T00:42:27.673Z,993.54
2018-02-02T00:43:08.195Z,993.57
2018-02-02T00:43:48.686Z,993.56
2018-02-02T00:44:29.190Z,993.57
2018-02-02T00:45:09.723Z,993.6
2018-02-02T00:45:50.236Z,993.57
2018-02-02T00:46:30.774Z,993.63
2018-02-02T00:47:11.343Z,993.6
2018-02-02T00:47:51.811Z,993.6
2018-02-02T00:48:32.481Z,993.64
2018-02-02T00:49:12.963Z,993.64
2018-02-02T00:49:53.523Z,993.66
2018-02-02T00:50:34.031Z,993.63
2018-02-02T00:51:14.606Z,993.66
2018-02-02T00:51:55.121Z,993.63
2018-02-02T00:52:35.657Z,993.67
2018-02-02T00:53:16.139Z,993.65
2018-02-02T00:53:56.713Z,993.69
2018-02-02T00:54:37.312Z,993.65
2018-02-02T00:55:17.722Z,993.7
2018-02-02T00:55:58.242Z,993.68
2018-02-02T00:56:38.821Z,993.72
2018-02-02T00:57:19.499Z,993.68
2018-02-02T00:57:59.919Z,993.7
2018-02-02T00:58:40.448Z,993.71
2018-02-02T00:59:20.993Z,993.7
2018-02-02T01:00:01.517Z,993.7
2018-02-02T01:00:42.050Z,993.72
2018-02-02T01:01:22.533Z,993.75
2018-02-02T01:02:03.121Z,993.69
2018-02-02T01:02:43.632Z,993.78
2018-02-02T01:03:24.194Z,993.75
2018-02-02T01:04:04.668Z,993.72
2018-02-02T01:04:45.179Z,993.78
2018-02-02T01:05:25.732Z,993.73
2018-02-02T01:06:06.249Z,993.72
2018-02-02T01:06:46.737Z,993.74
2018-02-02T01:07:27.271Z,993.75
2018-02-02T01:08:07.841Z,993.77
2018-02-02T01:08:48.317Z,993.74
2018-02-02T01:09:28.854Z,993.76
2018-02-02T01:10:09.421Z,993.78
2018-02-02T01:10:49.965Z,993.74
2018-02-02T01:11:30.474Z,993.76
2018-02-02T01:12:11.038Z,993.8
2018-02-02T01:12:51.524Z,993.76
2018-02-02T01:13:32.110Z,993.74
2018-02-02T01:14:12.674Z,993.82
2018-02-02T01:14:53.186Z,993.79
2018-02-02T01:15:33.759Z,993.72
2018-02-02T01:16:14.259Z,993.75
2018-02-02T01:16:54.795Z,993.77
2018-02-02T01:17:35.323Z,993.72
2018-02-02T01:18:15.873Z,993.76
2018-02-02T01:18:56.459Z,993.77
2018-02-02T01:19:36.962Z,993.74
2018-02-02T01:20:17.503Z,993.73
2018-02-02T01:20:58.048Z,993.71
2018-02-02T01:21:38.616Z,993.72
2018-02-02T01:22:19.140Z,993.69
2018-02-02T01:22:59.671Z,993.7
2018-02-02T01:23:40.207Z,993.69
2018-02-02T01:24:20.728Z,993.67
2018-02-02T01:25:01.223Z,993.71
2018-02-02T01:25:41.787Z,993.69
2018-02-02T01:26:22.303Z,993.66
2018-02-02T01:27:02.866Z,993.72
2018-02-02T01:27:43.354Z,993.71
2018-02-02T01:28:23.925Z,993.74
2018-02-02T01:29:04.471Z,993.73
2018-02-02T01:29:44.980Z,993.7
2018-02-02T01:30:25.506Z,993.7
2018-02-02T01:31:06.050Z,993.7
2018-02-02T01:31:46.600Z,993.67
2018-02-02T01:32:27.142Z,993.74
2018-02-02T01:33:07.709Z,993.65
2018-02-02T01:33:48.242Z,993.69
2018-02-02T01:34:28.786Z,993.67
2018-02-02T01:35:09.268Z,993.64
2018-02-02T01:35:49.828Z,993.68
2018-02-02T01:36:30.327Z,993.69
2018-02-02T01:37:10.873Z,993.69
2018-02-02T01:37:51.420Z,993.67
2018-02-02T01:38:31.982Z,993.75
2018-02-02T01:39:12.490Z,993.74
2018-02-02T01:39:53.049Z,993.75
2018-02-02T01:40:33.570Z,993.75
2018-02-02T01:41:14.123Z,993.72
2018-02-02T01:41:54.638Z,993.71
2018-02-02T01:42:35.208Z,993.7
2018-02-02T01:43:15.797Z,993.68
2018-02-02T01:43:56.278Z,993.71
2018-02-02T01:44:36.830Z,993.7
2018-02-02T01:45:17.331Z,993.74
2018-02-02T01:45:57.886Z,993.68
2018-02-02T01:46:38.554Z,993.68
2018-02-02T01:47:19.049Z,993.72
2018-02-02T01:47:59.649Z,993.71
2018-02-02T01:48:40.153Z,993.69
2018-02-02T01:49:20.669Z,993.72
2018-02-02T01:50:01.166Z,993.7
2018-02-02T01:50:41.697Z,993.67
2018-02-02T01:51:22.267Z,993.73
2018-02-02T01:52:02.830Z,993.76
2018-02-02T01:52:43.360Z,993.68
2018-02-02T01:53:23.871Z,993.7
2018-02-02T01:54:04.394Z,993.72
2018-02-02T01:54:44.932Z,993.73
2018-02-02T01:55:25.431Z,993.64
2018-02-02T01:56:05.965Z,993.74
2018-02-02T01:56:46.476Z,993.7
2018-02-02T01:57:27.007Z,993.72
2018-02-02T01:58:07.541Z,993.68
2018-02-02T01:58:48.083Z,993.67
2018-02-02T01:59:28.616Z,993.74
2018-02-02T02:00:09.073Z,993.74
2018-02-02T02:00:49.619Z,993.75
2018-02-02T02:01:30.216Z,993.74
2018-02-02T02:02:10.756Z,993.71
2018-02-02T02:02:51.297Z,993.76
2018-02-02T02:03:31.815Z,993.72
2018-02-02T02:04:12.330Z,993.73
2018-02-02T02:04:52.857Z,993.71
2018-02-02T02:05:33.392Z,993.66
2018-02-02T02:06:15.591Z,993.69
2018-02-02T02:06:56.101Z,993.69
2018-02-02T02:07:36.658Z,993.71
2018-02-02T02:08:17.203Z,993.64
2018-02-02T02:08:57.781Z,993.63
2018-02-02T02:09:38.315Z,993.63
2018-02-02T02:10:18.844Z,993.63
2018-02-02T02:10:59.404Z,993.63
2018-02-02T02:11:39.947Z,993.68
2018-02-02T02:12:20.498Z,993.71
2018-02-02T02:13:01.030Z,993.69
2018-02-02T02:13:41.527Z,993.67
2018-02-02T02:14:22.093Z,993.71
2018-02-02T02:15:02.616Z,993.64
2018-02-02T02:15:43.211Z,993.65
2018-02-02T02:16:23.820Z,993.68
2018-02-02T02:17:04.340Z,993.65
2018-02-02T02:17:44.849Z,993.63
2018-02-02T02:18:25.410Z,993.67
2018-02-02T02:19:05.995Z,993.65
2018-02-02T02:19:46.589Z,993.66
2018-02-02T02:20:27.121Z,993.61
2018-02-02T02:21:07.635Z,993.66
2018-02-02T02:21:48.180Z,993.63
2018-02-02T02:22:28.693Z,993.63
2018-02-02T02:23:09.263Z,993.66
2018-02-02T02:23:49.814Z,993.67
2018-02-02T02:24:30.343Z,993.65
2018-02-02T02:25:10.859Z,993.59
2018-02-02T02:25:51.404Z,993.65
2018-02-02T02:26:32.024Z,993.61
2018-02-02T02:27:12.539Z,993.57
2018-02-02T02:27:53.057Z,993.6
2018-02-02T02:28:33.624Z,993.61
2018-02-02T02:29:14.152Z,993.59
2018-02-02T02:29:54.712Z,993.56
2018-02-02T02:30:35.299Z,993.56
2018-02-02T02:31:15.789Z,993.54
2018-02-02T02:31:56.305Z,993.53
2018-02-02T02:32:36.903Z,993.52
2018-02-02T02:33:17.505Z,993.57
2018-02-02T02:33:58.045Z,993.58
2018-02-02T02:34:38.565Z,993.61
2018-02-02T02:35:19.126Z,993.54
2018-02-02T02:35:59.656Z,993.58
2018-02-02T02:36:40.178Z,993.57
2018-02-02T02:37:20.704Z,993.58
2018-02-02T02:38:01.296Z,993.56
2018-02-02T02:38:41.859Z,993.61
2018-02-02T02:39:22.431Z,993.56
2018-02-02T02:40:02.931Z,993.57
2018-02-02T02:40:43.467Z,993.56
2018-02-02T02:41:23.989Z,993.55
2018-02-02T02:42:04.564Z,993.58
2018-02-02T02:42:45.109Z,993.57
2018-02-02T02:43:25.596Z,993.58
2018-02-02T02:44:06.173Z,993.55
2018-02-02T02:44:46.712Z,993.58
2018-02-02T02:45:27.232Z,993.59
2018-02-02T02:46:07.790Z,993.56
2018-02-02T02:46:48.334Z,993.65
2018-02-02T02:47:28.883Z,993.62
2018-02-02T02:48:09.418Z,993.58
2018-02-02T02:48:49.990Z,993.58
2018-02-02T02:49:30.474Z,993.55
2018-02-02T02:50:11.076Z,993.55
2018-02-02T02:50:51.648Z,993.54
2018-02-02T02:51:32.258Z,993.53
2018-02-02T02:52:12.793Z,993.53
2018-02-02T02:52:53.316Z,993.54
2018-02-02T02:53:33.946Z,993.58
2018-02-02T02:54:14.391Z,993.51
2018-02-02T02:54:54.941Z,993.55
2018-02-02T02:55:35.529Z,993.57
2018-02-02T02:56:16.019Z,993.61
2018-02-02T02:56:56.602Z,993.6
2018-02-02T02:57:37.086Z,993.62
2018-02-02T02:58:17.664Z,993.58
2018-02-02T02:58:58.240Z,993.57
2018-02-02T02:59:38.782Z,993.57
2018-02-02T03:00:19.312Z,993.57
2018-02-02T03:00:59.862Z,993.61
2018-02-02T03:01:40.444Z,993.61
2018-02-02T03:02:20.980Z,993.61
2018-02-02T03:03:01.507Z,993.62
2018-02-02T03:03:42.032Z,993.65
2018-02-02T03:04:22.610Z,993.63
2018-02-02T03:05:03.139Z,993.59
2018-02-02T03:05:43.711Z,993.57
2018-02-02T03:06:24.243Z,993.55
2018-02-02T03:07:04.803Z,993.58
2018-02-02T03:07:45.355Z,993.57
2018-02-02T03:08:25.860Z,993.52
2018-02-02T03:09:06.410Z,993.58
2018-02-02T03:09:46.930Z,993.55
2018-02-02T03:10:27.479Z,993.58
2018-02-02T03:11:08.034Z,993.51
2018-02-02T03:11:48.558Z,993.5
2018-02-02T03:12:29.104Z,993.48
2018-02-02T03:13:09.651Z,993.5
2018-02-02T03:13:50.168Z,993.46
2018-02-02T03:14:30.728Z,993.51
2018-02-02T03:15:11.244Z,993.51
2018-02-02T03:15:51.802Z,993.5
2018-02-02T03:16:32.292Z,993.48
2018-02-02T03:17:12.822Z,993.52
2018-02-02T03:17:53.369Z,993.47
2018-02-02T03:18:33.922Z,993.46
2018-02-02T03:19:14.461Z,993.45
2018-02-02T03:19:55.000Z,993.45
2018-02-02T03:20:35.673Z,993.49
2018-02-02T03:21:16.168Z,993.47
2018-02-02T03:21:56.674Z,993.45
2018-02-02T03:22:37.185Z,993.48
2018-02-02T03:23:17.737Z,993.44
2018-02-02T03:23:58.342Z,993.47
2018-02-02T03:24:38.927Z,993.44
2018-02-02T03:25:19.438Z,993.44
2018-02-02T03:25:59.962Z,993.44
2018-02-02T03:26:40.529Z,993.42
2018-02-02T03:27:21.082Z,993.46
2018-02-02T03:28:01.593Z,993.48
2018-02-02T03:28:42.088Z,993.45
2018-02-02T03:29:22.653Z,993.46
2018-02-02T03:30:03.195Z,993.45
2018-02-02T03:30:43.741Z,993.4
2018-02-02T03:31:24.345Z,993.41
2018-02-02T03:32:04.913Z,993.4
2018-02-02T03:32:45.447Z,993.4
2018-02-02T03:33:25.969Z,993.47
2018-02-02T03:34:06.445Z,993.44
2018-02-02T03:34:47.030Z,993.46
2018-02-02T03:35:27.559Z,993.41
2018-02-02T03:36:08.157Z,993.44
2018-02-02T03:36:48.705Z,993.43
2018-02-02T03:37:29.242Z,993.43
2018-02-02T03:38:09.836Z,993.43
2018-02-02T03:38:50.391Z,993.43
2018-02-02T03:39:30.905Z,993.48
2018-02-02T03:40:11.477Z,993.46
2018-02-02T03:40:52.008Z,993.49
2018-02-02T03:41:32.527Z,993.49
2018-02-02T03:42:13.029Z,993.47
2018-02-02T03:42:53.603Z,993.46
2018-02-02T03:43:34.161Z,993.5
2018-02-02T03:44:14.690Z,993.46
2018-02-02T03:44:55.190Z,993.49
2018-02-02T03:45:35.752Z,993.44
2018-02-02T03:46:16.277Z,993.48
2018-02-02T03:46:56.878Z,993.47
2018-02-02T03:47:37.350Z,993.46
2018-02-02T03:48:17.914Z,993.46
2018-02-02T03:48:58.413Z,993.45
2018-02-02T03:49:38.952Z,993.49
2018-02-02T03:50:19.581Z,993.49
2018-02-02T03:51:00.071Z,993.47
2018-02-02T03:51:40.673Z,993.47
2018-02-02T03:52:21.156Z,993.49
2018-02-02T03:53:01.694Z,993.48
2018-02-02T03:53:42.232Z,993.5
2018-02-02T03:54:22.773Z,993.5
2018-02-02T03:55:03.361Z,993.49
2018-02-02T03:55:43.883Z,993.5
2018-02-02T03:56:24.453Z,993.5
2018-02-02T03:57:05.063Z,993.49
2018-02-02T03:57:45.599Z,993.46
2018-02-02T03:58:27.815Z,993.47
2018-02-02T03:59:08.374Z,993.43
2018-02-02T03:59:48.925Z,993.47
2018-02-02T04:00:29.538Z,993.46
2018-02-02T04:01:10.027Z,993.52
2018-02-02T04:01:50.574Z,993.46
2018-02-02T04:02:31.158Z,993.5
2018-02-02T04:03:11.668Z,993.52
2018-02-02T04:03:52.187Z,993.59
2018-02-02T04:04:32.797Z,993.51
2018-02-02T04:05:13.286Z,993.59
2018-02-02T04:05:53.880Z,993.57
2018-02-02T04:06:34.370Z,993.56
2018-02-02T04:07:14.894Z,993.58
2018-02-02T04:07:55.452Z,993.51
2018-02-02T04:08:36.013Z,993.56
2018-02-02T04:09:16.517Z,993.54
2018-02-02T04:09:57.075Z,993.6
2018-02-02T04:10:37.666Z,993.57
2018-02-02T04:11:18.138Z,993.55
2018-02-02T04:11:58.667Z,993.59
2018-02-02T04:12:39.211Z,993.61
2018-02-02T04:13:19.734Z,993.59
2018-02-02T04:14:00.281Z,993.59
2018-02-02T04:14:40.807Z,993.62
2018-02-02T04:15:21.309Z,993.61
2018-02-02T04:16:01.856Z,993.58
2018-02-02T04:16:42.418Z,993.61
2018-02-02T04:17:22.974Z,993.65
2018-02-02T04:18:03.473Z,993.65
2018-02-02T04:18:44.045Z,993.65
2018-02-02T04:19:24.599Z,993.68
2018-02-02T04:20:05.109Z,993.64
2018-02-02T04:20:45.612Z,993.62
2018-02-02T04:21:26.160Z,993.67
2018-02-02T04:22:06.716Z,993.67
2018-02-02T04:22:47.187Z,993.66
2018-02-02T04:23:27.818Z,993.66
2018-02-02T04:24:08.385Z,993.62
2018-02-02T04:24:48.958Z,993.61
2018-02-02T04:25:29.508Z,993.65
2018-02-02T04:26:09.976Z,993.65
2018-02-02T04:26:50.533Z,993.59
2018-02-02T04:27:31.060Z,993.65
2018-02-02T04:28:11.578Z,993.62
2018-02-02T04:28:52.121Z,993.62
2018-02-02T04:29:32.671Z,993.61
2018-02-02T04:30:13.218Z,993.66
2018-02-02T04:30:53.791Z,993.63
2018-02-02T04:31:34.283Z,993.64
2018-02-02T04:32:14.849Z,993.62
2018-02-02T04:32:55.404Z,993.62
2018-02-02T04:33:35.936Z,993.62
2018-02-02T04:34:16.438Z,993.62
2018-02-02T04:34:57.043Z,993.64
2018-02-02T04:35:37.523Z,993.63
2018-02-02T04:36:18.053Z,993.62
2018-02-02T04:36:58.603Z,993.62
2018-02-02T04:37:39.141Z,993.63
2018-02-02T04:38:19.697Z,993.65
2018-02-02T04:39:00.228Z,993.64
2018-02-02T04:39:40.768Z,993.6
2018-02-02T04:40:21.833Z,993.64
2018-02-02T04:41:02.375Z,993.67
2018-02-02T04:41:42.872Z,993.64
2018-02-02T04:42:23.379Z,993.65
2018-02-02T04:43:03.942Z,993.63
2018-02-02T04:43:44.450Z,993.66
2018-02-02T04:44:24.996Z,993.61
2018-02-02T04:45:05.712Z,993.56
2018-02-02T04:45:46.306Z,993.62
2018-02-02T04:46:26.824Z,993.59
2018-02-02T04:47:07.329Z,993.56
2018-02-02T04:47:47.855Z,993.59
2018-02-02T04:48:28.650Z,993.62
2018-02-02T04:49:09.157Z,993.6
2018-02-02T04:49:49.702Z,993.56
2018-02-02T04:50:30.394Z,993.62
2018-02-02T04:51:10.900Z,993.63
2018-02-02T04:51:51.435Z,993.56
2018-02-02T04:52:31.963Z,993.64
2018-02-02T04:53:12.507Z,993.61
2018-02-02T04:53:53.060Z,993.54
2018-02-02T04:54:33.837Z,993.64
2018-02-02T04:55:14.417Z,993.6
2018-02-02T04:55:54.953Z,993.58
2018-02-02T04:56:35.520Z,993.62
2018-02-02T04:57:16.041Z,993.61
2018-02-02T04:57:56.600Z,993.66
2018-02-02T04:58:37.093Z,993.63
2018-02-02T04:59:17.650Z,993.61
2018-02-02T04:59:58.274Z,993.65
2018-02-02T05:00:38.782Z,993.6
2018-02-02T05:01:19.315Z,993.62
2018-02-02T05:01:59.893Z,993.62
2018-02-02T05:02:40.460Z,993.57
2018-02-02T05:03:21.003Z,993.55
2018-02-02T05:04:01.480Z,993.59
2018-02-02T05:04:41.996Z,993.59
2018-02-02T05:05:22.523Z,993.59
2018-02-02T05:06:03.004Z,993.56
2018-02-02T05:06:43.602Z,993.57
2018-02-02T05:07:24.129Z,993.6
2018-02-02T05:08:04.680Z,993.56
2018-02-02T05:08:45.183Z,993.53
2018-02-02T05:09:25.728Z,993.55
2018-02-02T05:10:06.340Z,993.53
2018-02-02T05:10:46.863Z,993.55
2018-02-02T05:11:27.389Z,993.55
2018-02-02T05:12:07.932Z,993.53
2018-02-02T05:12:48.484Z,993.51
2018-02-02T05:13:29.032Z,993.53
2018-02-02T05:14:09.553Z,993.53
2018-02-02T05:14:50.081Z,993.52
2018-02-02T05:15:30.602Z,993.52
2018-02-02T05:16:11.151Z,993.49
2018-02-02T05:16:51.691Z,993.49
2018-02-02T05:17:32.220Z,993.47
2018-02-02T05:18:12.743Z,993.56
2018-02-02T05:18:53.324Z,993.55
2018-02-02T05:19:33.828Z,993.53
2018-02-02T05:20:14.384Z,993.6
2018-02-02T05:20:55.018Z,993.52
2018-02-02T05:21:35.458Z,993.57
2018-02-02T05:22:16.125Z,993.5
2018-02-02T05:22:56.758Z,993.63
2018-02-02T05:23:37.194Z,993.54
2018-02-02T05:24:17.818Z,993.61
2018-02-02T05:24:58.270Z,993.51
2018-02-02T05:25:38.819Z,993.56
2018-02-02T05:26:19.330Z,993.57
2018-02-02T05:26:59.885Z,993.49
2018-02-02T05:27:40.476Z,993.52
2018-02-02T05:28:20.954Z,993.47
2018-02-02T05:29:01.530Z,993.47
2018-02-02T05:29:42.060Z,993.48
2018-02-02T05:30:22.613Z,993.47
2018-02-02T05:31:03.118Z,993.49
2018-02-02T05:31:43.684Z,993.46
2018-02-02T05:32:24.184Z,993.46
2018-02-02T05:33:04.797Z,993.44
2018-02-02T05:33:45.277Z,993.4
2018-02-02T05:34:25.811Z,993.41
2018-02-02T05:35:06.352Z,993.48
2018-02-02T05:35:46.939Z,993.35
2018-02-02T05:36:27.564Z,993.35
2018-02-02T05:37:08.044Z,993.39
2018-02-02T05:37:48.593Z,993.41
2018-02-02T05:38:29.116Z,993.44
2018-02-02T05:39:09.683Z,993.43
2018-02-02T05:39:50.336Z,993.41
2018-02-02T05:40:30.868Z,993.39
2018-02-02T05:41:11.419Z,993.4
2018-02-02T05:41:51.968Z,993.41
2018-02-02T05:42:32.462Z,993.44
2018-02-02T05:43:12.968Z,993.44
2018-02-02T05:43:53.628Z,993.46
2018-02-02T05:44:34.111Z,993.43
2018-02-02T05:45:14.624Z,993.42
2018-02-02T05:45:55.199Z,993.43
2018-02-02T05:46:35.674Z,993.44
2018-02-02T05:47:16.174Z,993.45
2018-02-02T05:47:56.706Z,993.47
2018-02-02T05:48:37.240Z,993.42
2018-02-02T05:49:17.805Z,993.4
2018-02-02T05:49:58.262Z,993.46
2018-02-02T05:50:38.836Z,993.43
2018-02-02T05:51:19.346Z,993.43
2018-02-02T05:51:59.938Z,993.47
2018-02-02T05:52:40.510Z,993.38
2018-02-02T05:53:21.055Z,993.39
2018-02-02T05:54:01.583Z,993.36
2018-02-02T05:54:42.138Z,993.4
2018-02-02T05:55:22.604Z,993.39
2018-02-02T05:56:03.212Z,993.41
2018-02-02T05:56:43.789Z,993.39
2018-02-02T05:57:24.269Z,993.41
2018-02-02T05:58:04.858Z,993.37
2018-02-02T05:58:45.357Z,993.46
2018-02-02T05:59:26.001Z,993.39
2018-02-02T06:00:06.580Z,993.41
2018-02-02T06:00:47.128Z,993.44
2018-02-02T06:01:27.671Z,993.37
2018-02-02T06:02:08.202Z,993.41
2018-02-02T06:02:48.715Z,993.41
2018-02-02T06:03:29.264Z,993.38
2018-02-02T06:04:09.814Z,993.36
2018-02-02T06:04:50.321Z,993.36
2018-02-02T06:05:31.155Z,993.39
2018-02-02T06:06:11.771Z,993.34
2018-02-02T06:06:52.385Z,993.33
2018-02-02T06:07:35.712Z,993.32
2018-02-02T06:08:16.165Z,993.34
2018-02-02T06:08:56.822Z,993.29
2018-02-02T06:09:37.966Z,993.3
2018-02-02T06:10:18.536Z,993.25
2018-02-02T06:10:59.047Z,993.27
2018-02-02T06:11:39.630Z,993.26
2018-02-02T06:12:20.159Z,993.29
2018-02-02T06:13:00.769Z,993.27
2018-02-02T06:13:41.406Z,993.29
2018-02-02T06:14:22.110Z,993.28
2018-02-02T06:15:02.679Z,993.28
2018-02-02T06:15:43.258Z,993.26
2018-02-02T06:16:23.857Z,993.24
2018-02-02T06:17:04.412Z,993.23
2018-02-02T06:17:44.867Z,993.26
2018-02-02T06:18:25.449Z,993.25
2018-02-02T06:19:06.021Z,993.24
2018-02-02T06:19:46.513Z,993.28
2018-02-02T06:20:27.209Z,993.29
2018-02-02T06:21:07.676Z,993.28
2018-02-02T06:21:48.213Z,993.32
2018-02-02T06:22:28.709Z,993.31
2018-02-02T06:23:09.820Z,993.32
2018-02-02T06:23:49.881Z,993.32
2018-02-02T06:24:30.420Z,993.33
2018-02-02T06:25:11.001Z,993.34
2018-02-02T06:25:51.748Z,993.31
2018-02-02T06:26:32.514Z,993.34
2018-02-02T06:27:13.298Z,993.3
2018-02-02T06:27:53.913Z,993.3
2018-02-02T06:28:34.387Z,993.3
2018-02-02T06:29:14.926Z,993.28
2018-02-02T06:29:55.559Z,993.29
2018-02-02T06:30:36.356Z,993.26
2018-02-02T06:31:19.250Z,993.28
2018-02-02T06:31:59.662Z,993.33
2018-02-02T06:32:40.234Z,993.37
2018-02-02T06:33:20.697Z,993.33
2018-02-02T06:34:01.259Z,993.31
2018-02-02T06:34:41.758Z,993.33
2018-02-02T06:35:22.335Z,993.25
2018-02-02T06:36:02.866Z,993.32
2018-02-02T06:36:43.401Z,993.31
2018-02-02T06:37:23.970Z,993.33
2018-02-02T06:38:04.500Z,993.31
2018-02-02T06:38:45.011Z,993.31
2018-02-02T06:39:25.591Z,993.32
2018-02-02T06:40:06.107Z,993.32
2018-02-02T06:40:46.615Z,993.33
2018-02-02T06:41:27.133Z,993.33
2018-02-02T06:42:07.730Z,993.34
2018-02-02T06:42:48.283Z,993.34
2018-02-02T06:43:28.771Z,993.33
2018-02-02T06:44:09.300Z,993.37
2018-02-02T06:44:49.815Z,993.35
2018-02-02T06:45:30.386Z,993.34
2018-02-02T06:46:11.035Z,993.35
2018-02-02T06:46:51.636Z,993.35
2018-02-02T06:47:31.993Z,993.32
2018-02-02T06:48:12.514Z,993.31
2018-02-02T06:48:53.200Z,993.35
2018-02-02T06:49:33.717Z,993.35
2018-02-02T06:50:14.239Z,993.35
2018-02-02T06:50:54.789Z,993.33
2018-02-02T06:51:35.371Z,993.31
2018-02-02T06:52:15.912Z,993.31
2018-02-02T06:52:56.460Z,993.32
2018-02-02T06:53:36.981Z,993.32
2018-02-02T06:54:17.454Z,993.33
2018-02-02T06:54:58.051Z,993.37
2018-02-02T06:55:38.593Z,993.3
2018-02-02T06:56:19.105Z,993.34
2018-02-02T06:56:59.616Z,993.34
2018-02-02T06:57:40.297Z,993.36
2018-02-02T06:58:21.061Z,993.34
2018-02-02T06:59:01.595Z,993.39
2018-02-02T06:59:42.143Z,993.35
2018-02-02T07:00:22.603Z,993.39
2018-02-02T07:01:03.167Z,993.43
2018-02-02T07:01:43.681Z,993.44
2018-02-02T07:02:24.272Z,993.43
2018-02-02T07:03:04.802Z,993.45
2018-02-02T07:03:45.368Z,993.43
2018-02-02T07:04:25.877Z,993.45
2018-02-02T07:05:06.471Z,993.39
2018-02-02T07:05:47.020Z,993.35
2018-02-02T07:06:27.581Z,993.35
2018-02-02T07:07:08.099Z,993.31
2018-02-02T07:07:49.049Z,993.26
2018-02-02T07:08:29.667Z,993.28
2018-02-02T07:09:10.187Z,993.3
2018-02-02T07:09:50.759Z,993.27
2018-02-02T07:10:31.299Z,993.31
2018-02-02T07:11:11.917Z,993.29
2018-02-02T07:11:52.458Z,993.28
2018-02-02T07:12:32.964Z,993.31
2018-02-02T07:13:13.521Z,993.32
2018-02-02T07:13:54.075Z,993.29
2018-02-02T07:14:34.629Z,993.35
2018-02-02T07:15:15.189Z,993.3
2018-02-02T07:15:55.789Z,993.29
2018-02-02T07:16:36.349Z,993.25
2018-02-02T07:17:16.845Z,993.3
2018-02-02T07:17:57.361Z,993.36
2018-02-02T07:18:38.040Z,993.36
2018-02-02T07:19:18.629Z,993.39
2018-02-02T07:19:59.147Z,993.39
2018-02-02T07:20:39.733Z,993.33
2018-02-02T07:21:20.263Z,993.35
2018-02-02T07:22:00.758Z,993.38
2018-02-02T07:22:41.296Z,993.34
2018-02-02T07:23:22.056Z,993.42
2018-02-02T07:24:02.598Z,993.4
2018-02-02T07:24:43.254Z,993.33
2018-02-02T07:25:23.833Z,993.37
2018-02-02T07:26:04.310Z,993.32
2018-02-02T07:26:44.888Z,993.39
2018-02-02T07:27:25.449Z,993.37
2018-02-02T07:28:05.939Z,993.39
2018-02-02T07:28:46.451Z,993.43
2018-02-02T07:29:27.006Z,993.39
2018-02-02T07:30:07.534Z,993.35
2018-02-02T07:30:48.079Z,993.38
2018-02-02T07:31:28.622Z,993.36
2018-02-02T07:32:09.115Z,993.34
2018-02-02T07:32:49.740Z,993.36
2018-02-02T07:33:30.201Z,993.38
2018-02-02T07:34:10.746Z,993.41
2018-02-02T07:34:51.243Z,993.36
2018-02-02T07:35:31.781Z,993.34
2018-02-02T07:36:12.339Z,993.35
2018-02-02T07:36:52.993Z,993.31
2018-02-02T07:37:33.496Z,993.36
2018-02-02T07:38:14.084Z,993.38
2018-02-02T07:38:54.612Z,993.35
2018-02-02T07:39:35.181Z,993.35
2018-02-02T07:40:15.795Z,993.34
2018-02-02T07:40:56.372Z,993.41
2018-02-02T07:41:36.939Z,993.42
2018-02-02T07:42:17.482Z,993.41
2018-02-02T07:42:58.035Z,993.41
2018-02-02T07:43:38.647Z,993.41
2018-02-02T07:44:19.129Z,993.36
2018-02-02T07:44:59.720Z,993.41
2018-02-02T07:45:40.330Z,993.47
2018-02-02T07:46:20.762Z,993.45
2018-02-02T07:47:01.372Z,993.52
2018-02-02T07:47:41.901Z,993.51
2018-02-02T07:48:22.564Z,993.55
2018-02-02T07:49:03.062Z,993.51
2018-02-02T07:49:43.742Z,993.5
2018-02-02T07:50:24.140Z,993.42
2018-02-02T07:51:04.714Z,993.55
2018-02-02T07:51:45.188Z,993.55
2018-02-02T07:52:25.739Z,993.54
2018-02-02T07:53:06.336Z,993.55
2018-02-02T07:53:46.866Z,993.55
2018-02-02T07:54:27.412Z,993.52
2018-02-02T07:55:07.964Z,993.51
2018-02-02T07:55:48.458Z,993.53
2018-02-02T07:56:29.045Z,993.54
2018-02-02T07:57:09.516Z,993.55
2018-02-02T07:57:50.038Z,993.57
2018-02-02T07:58:30.588Z,993.57
2018-02-02T07:59:11.205Z,993.56
2018-02-02T07:59:51.724Z,993.62
2018-02-02T08:00:32.190Z,993.55
2018-02-02T08:01:12.746Z,993.55
2018-02-02T08:01:53.262Z,993.6
2018-02-02T08:02:33.816Z,993.56
2018-02-02T08:03:14.367Z,993.63
2018-02-02T08:03:54.923Z,993.58
2018-02-02T08:04:35.456Z,993.59
2018-02-02T08:05:15.966Z,993.59
2018-02-02T08:05:56.525Z,993.58
2018-02-02T08:06:37.014Z,993.58
2018-02-02T08:07:17.547Z,993.56
2018-02-02T08:07:58.272Z,993.53
2018-02-02T08:08:38.804Z,993.55
2018-02-02T08:09:19.431Z,993.57
2018-02-02T08:09:59.998Z,993.64
2018-02-02T08:10:40.610Z,993.54
2018-02-02T08:11:21.090Z,993.59
2018-02-02T08:12:01.624Z,993.56
2018-02-02T08:12:42.273Z,993.61
2018-02-02T08:13:22.755Z,993.55
2018-02-02T08:14:03.332Z,993.59
2018-02-02T08:14:43.865Z,993.61
2018-02-02T08:15:24.436Z,993.61
2018-02-02T08:16:04.964Z,993.62
2018-02-02T08:16:45.503Z,993.64
2018-02-02T08:17:26.097Z,993.66
2018-02-02T08:18:06.583Z,993.65
2018-02-02T08:18:47.125Z,993.63
2018-02-02T08:19:27.657Z,993.61
2018-02-02T08:20:08.219Z,993.62
2018-02-02T08:20:48.708Z,993.62
2018-02-02T08:21:29.229Z,993.64
2018-02-02T08:22:09.760Z,993.66
2018-02-02T08:22:50.370Z,993.68
2018-02-02T08:23:30.871Z,993.63
2018-02-02T08:24:11.425Z,993.64
2018-02-02T08:24:52.085Z,993.61
2018-02-02T08:25:32.632Z,993.63
2018-02-02T08:26:13.131Z,993.64
2018-02-02T08:26:53.794Z,993.66
2018-02-02T08:27:34.933Z,993.64